Terminal Aerodrome Forecast
Issued by NWS

Home | Current Version | Previous Version | Text Only | Print | Product List | Glossary On
Versions: 1 2 3 4 5 6 7 8 9 10 11 12 13 14 15 16
000
FTUS43 KMQT 220200 AAA
TAFCMX
TAF AMD
KCMX 220237Z 2203/2224 15009KT 1SM -SN OVC003
      TEMPO 2203/2205 1/4SM SN FG VV002
     FM220500 15009KT 2SM -SN OVC007
     FM220700 15009KT 3SM -SN OVC012
     FM221400 14008KT 6SM -SN OVC015=

USA.gov is the U.S. government's official web portal to all federal, state and local government web resources and services.